Terminal Aerodrome Forecast
Issued by NWS Charleston, WV

Current Version | Previous Version | Graphics & Text | Print | Product List | Glossary Off
Versions: 1 2 3 4 5 6 7 8 9 10 11 12 13 14 15 16 17 18 19 20 21 22 23 24 25 26 27 28 29 30 31 32 33 34 35 36 37 38 39

313
FTUS41 KRLX 301658 AAC
TAFHTS
TAF AMD
KHTS 301658Z 3017/3112 28004G20KT 3SM -TSRA BKN025CB
     FM301730 24004KT P6SM VCTS BKN035CB
     FM302200 24004KT P6SM BKN040
     FM310500 00000KT 4SM BR BKN050
     FM310900 00000KT 1SM BR BKN001=

USA.gov is the U.S. government's official web portal to all federal, state and local government web resources and services.